• Join FlightAware (Why Join?)
  • Login
  • US Flag 
10:22AM EDT


 

Airport Tracker/Info


-or-


 

Live Flight TrackerFlight Track Log ✈ EGF3984 ✈ 09-May-2013 ✈ KORD - KDAY

Flight Track Log - Related Links

Times and Time Zones

All times are in EDT time to prevent confusion due to time zone crossing. See the EGF3984 flight status page for this flight to view local times or setup timezone preferences in your user account.

Time Position Orientation Groundspeed Altitude Reporting Facility
EDT Latitude Longitude Course Direction KTS MPH feet Rate Location/Type
09:08AM 42.0000 -87.9333 90° East 173 199 1,900  Level Chicago TRACON
09:09AM 42.0500 -87.8833 37° Northeast 229 264 4,400 2,040 Climbing Chicago TRACON
09:10AM 41.9605 -87.4713 98° East  Level FlightAware Approximate
09:11AM 41.9474 -87.3293 95° East  Level FlightAware Approximate
09:11AM 42.1411 -87.7858 38° Northeast 267 307 7,100  Level Chicago Center
09:12AM 41.9372 -87.1870 95° East  Level FlightAware Approximate
09:12AM 42.1383 -87.6825 92° East 284 327 9,800  Level Chicago Center
09:13AM 41.9333 -87.0442 90° East  Level FlightAware Approximate
09:13AM 42.1044 -87.5797 114° Southeast 298 343 12,000  Level Chicago Center
09:14AM 42.0697 -87.4661 112° Southeast 325 374 13,800 1,260 Climbing Chicago Center
09:15AM 42.0317 -87.3425 112° Southeast 350 403 14,700 840 Climbing Chicago Center
09:16AM 41.9914 -87.2061 112° Southeast 377 434 15,600 1,380 Climbing Chicago Center
09:17AM 41.9458 -87.0381 110° East 409 471 17,600 1,620 Climbing Chicago Center
09:18AM 41.9247 -86.8906 101° East 406 467 19,000 1,440 Climbing Chicago Center
09:19AM 41.9058 -86.7414 100° East 407 468 20,600 1,500 Climbing Chicago Center
09:20AM 41.8872 -86.5878 99° East 413 475 22,200 1,140 Climbing Chicago Center
09:21AM 41.8678 -86.4325 99° East 420 483 23,000 360 Climbing Chicago Center
09:22AM 41.8458 -86.2664 100° East 442 509 23,000  Level Chicago Center
09:23AM 41.8242 -86.0956 100° East 460 529 23,000  Level Chicago Center
09:24AM 41.7975 -85.8933 100° East 454 522 23,000  Level Chicago Center
09:25AM 41.7778 -85.7378 100° East 427 491 23,000  Level Chicago Center
09:26AM 41.7319 -85.5922 113° Southeast 424 488 23,000  Level Chicago Center
09:27AM 41.6697 -85.4286 117° Southeast 441 507 23,000  Level Chicago Center
09:28AM 41.5625 -85.3611 155° Southeast 435 501 23,000  Level Chicago Center
09:29AM 41.4453 -85.3256 167° South 434 499 23,000 -180 Level Chicago Center
09:30AM 41.3297 -85.2753 162° South 442 509 22,700 -840 Descending Chicago Center
09:31AM 41.2414 -85.1681 138° Southeast 437 503 21,300 -1,560 Descending Chicago Center
09:32AM 41.1556 -85.0642 138° Southeast 425 489 19,500 -1,980 Descending Chicago Center
09:33AM 41.0547 -84.9417 137° Southeast 415 478 17,300 -2,040 Descending Chicago Center
09:34AM 40.9700 -84.8431 139° Southeast 410 472 15,400 -1,140 Descending Chicago Center
09:35AM 40.8889 -84.7450 138° Southeast 400 460 15,000 -240 Descending Chicago Center
09:36AM 40.8078 -84.6492 138° Southeast 394 453 15,000 -420 Level Chicago Center
09:37AM 40.7272 -84.5556 139° Southeast 390 449 14,200 -900 Descending Chicago Center
09:38AM 40.6500 -84.4633 138° Southeast 380 437 13,200 -1,080 Descending Chicago Center
09:39AM 40.5953 -84.3997 139° Southeast 367 422 12,400 -1,140 Descending Indianapolis Center
09:39AM 40.5636 -84.3669 142° Southeast 364 419 12,100 -1,080 Descending Indianapolis Center
09:40AM 40.5092 -84.3406 160° South 348 400 11,300 -1,320 Descending Indianapolis Center
09:40AM 40.4742 -84.3328 170° South 334 384 10,800 -1,260 Descending Indianapolis Center
09:41AM 40.4017 -84.3153 170° South 335 386 10,000 -840 Descending Indianapolis Center
09:41AM 40.3731 -84.3108 173° South 334 384 10,000 -120 Level Indianapolis Center
09:42AM 40.3056 -84.2928 168° South 347 399 9,900 -960 Descending Indianapolis Center
09:43AM 40.2242 -84.2717 169° South 308 354 8,300 -1,560 Descending Indianapolis Center